sensor_id;sensor_type;location;lat;lon;timestamp;pressure;altitude;pressure_sealevel;temperature;humidity
2397;BME280;1209;48.410;9.054;2023-07-13T00:01:26;96285.53;;;20.47;100.00
2397;BME280;1209;48.410;9.054;2023-07-13T00:03:51;96287.06;;;20.43;100.00
2397;BME280;1209;48.410;9.054;2023-07-13T00:06:17;96285.56;;;20.35;100.00
2397;BME280;1209;48.410;9.054;2023-07-13T00:08:42;96283.94;;;20.34;100.00
2397;BME280;1209;48.410;9.054;2023-07-13T00:11:08;96283.47;;;20.37;100.00
2397;BME280;1209;48.410;9.054;2023-07-13T00:13:35;96287.31;;;20.41;100.00
2397;BME280;1209;48.410;9.054;2023-07-13T00:16:03;96286.38;;;20.36;100.00
2397;BME280;1209;48.410;9.054;2023-07-13T00:18:28;96290.53;;;20.43;100.00
2397;BME280;1209;48.410;9.054;2023-07-13T00:20:56;96290.50;;;20.32;100.00
2397;BME280;1209;48.410;9.054;2023-07-13T00:23:30;96288.09;;;20.30;100.00
2397;BME280;1209;48.410;9.054;2023-07-13T00:25:55;96283.72;;;20.24;100.00
2397;BME280;1209;48.410;9.054;2023-07-13T00:28:21;96284.53;;;20.25;100.00
2397;BME280;1209;48.410;9.054;2023-07-13T00:30:47;96278.41;;;20.24;100.00
2397;BME280;1209;48.410;9.054;2023-07-13T00:33:12;96278.19;;;20.26;100.00
2397;BME280;1209;48.410;9.054;2023-07-13T00:35:37;96282.84;;;20.07;100.00
2397;BME280;1209;48.410;9.054;2023-07-13T00:38:04;96275.81;;;20.01;100.00
2397;BME280;1209;48.410;9.054;2023-07-13T00:40:29;96284.44;;;20.20;100.00
2397;BME280;1209;48.410;9.054;2023-07-13T00:42:57;96279.00;;;20.26;100.00
2397;BME280;1209;48.410;9.054;2023-07-13T00:47:48;96280.16;;;20.19;100.00
2397;BME280;1209;48.410;9.054;2023-07-13T00:50:16;96282.09;;;20.35;100.00
2397;BME280;1209;48.410;9.054;2023-07-13T00:52:44;96283.72;;;20.24;100.00
2397;BME280;1209;48.410;9.054;2023-07-13T00:55:10;96280.75;;;20.09;100.00
2397;BME280;1209;48.410;9.054;2023-07-13T00:57:37;96289.66;;;20.03;100.00
2397;BME280;1209;48.410;9.054;2023-07-13T01:00:04;96290.81;;;20.07;100.00
2397;BME280;1209;48.410;9.054;2023-07-13T01:02:32;96283.19;;;20.10;100.00
2397;BME280;1209;48.410;9.054;2023-07-13T01:04:58;96288.41;;;19.94;100.00
2397;BME280;1209;48.410;9.054;2023-07-13T01:07:23;96286.66;;;19.99;100.00
2397;BME280;1209;48.410;9.054;2023-07-13T01:09:49;96286.06;;;20.09;100.00
2397;BME280;1209;48.410;9.054;2023-07-13T01:12:14;96284.00;;;20.11;100.00
2397;BME280;1209;48.410;9.054;2023-07-13T01:14:40;96289.09;;;20.01;100.00
2397;BME280;1209;48.410;9.054;2023-07-13T01:17:09;96292.44;;;19.96;100.00
2397;BME280;1209;48.410;9.054;2023-07-13T01:19:40;96282.97;;;20.00;100.00
2397;BME280;1209;48.410;9.054;2023-07-13T01:22:13;96287.25;;;20.01;100.00
2397;BME280;1209;48.410;9.054;2023-07-13T01:24:40;96292.00;;;19.88;100.00
2397;BME280;1209;48.410;9.054;2023-07-13T01:27:07;96290.13;;;19.65;100.00
2397;BME280;1209;48.410;9.054;2023-07-13T01:29:35;96286.88;;;19.86;100.00
2397;BME280;1209;48.410;9.054;2023-07-13T01:32:08;96292.31;;;19.68;100.00
2397;BME280;1209;48.410;9.054;2023-07-13T01:34:33;96299.25;;;19.69;100.00
2397;BME280;1209;48.410;9.054;2023-07-13T01:36:58;96295.88;;;19.85;100.00
2397;BME280;1209;48.410;9.054;2023-07-13T01:39:24;96293.34;;;19.78;100.00
2397;BME280;1209;48.410;9.054;2023-07-13T01:41:49;96295.88;;;19.85;100.00
2397;BME280;1209;48.410;9.054;2023-07-13T01:44:14;96301.91;;;19.92;100.00
2397;BME280;1209;48.410;9.054;2023-07-13T01:46:40;96304.88;;;19.84;100.00
2397;BME280;1209;48.410;9.054;2023-07-13T01:49:05;96304.19;;;19.65;100.00
2397;BME280;1209;48.410;9.054;2023-07-13T01:51:31;96299.13;;;19.75;100.00
2397;BME280;1209;48.410;9.054;2023-07-13T01:53:56;96293.00;;;19.75;100.00
2397;BME280;1209;48.410;9.054;2023-07-13T01:56:21;96304.06;;;19.72;100.00
2397;BME280;1209;48.410;9.054;2023-07-13T01:58:47;96298.31;;;19.63;100.00
2397;BME280;1209;48.410;9.054;2023-07-13T02:01:12;96306.13;;;19.46;100.00
2397;BME280;1209;48.410;9.054;2023-07-13T02:03:38;96302.31;;;19.42;100.00
2397;BME280;1209;48.410;9.054;2023-07-13T02:06:04;96301.69;;;19.29;100.00
2397;BME280;1209;48.410;9.054;2023-07-13T02:08:29;96300.31;;;19.14;100.00
2397;BME280;1209;48.410;9.054;2023-07-13T02:10:54;96300.63;;;18.95;100.00
2397;BME280;1209;48.410;9.054;2023-07-13T02:13:19;96307.53;;;19.07;100.00
2397;BME280;1209;48.410;9.054;2023-07-13T02:15:45;96311.22;;;18.76;100.00
2397;BME280;1209;48.410;9.054;2023-07-13T02:18:10;96299.59;;;18.66;100.00
2397;BME280;1209;48.410;9.054;2023-07-13T02:20:36;96300.22;;;18.61;100.00
2397;BME280;1209;48.410;9.054;2023-07-13T02:23:01;96305.81;;;18.53;100.00
2397;BME280;1209;48.410;9.054;2023-07-13T02:25:26;96301.13;;;18.55;100.00
2397;BME280;1209;48.410;9.054;2023-07-13T02:27:52;96307.97;;;18.63;100.00
2397;BME280;1209;48.410;9.054;2023-07-13T02:30:17;96309.66;;;18.39;100.00
2397;BME280;1209;48.410;9.054;2023-07-13T02:32:43;96307.50;;;18.66;100.00
2397;BME280;1209;48.410;9.054;2023-07-13T02:35:09;96311.69;;;18.73;100.00
2397;BME280;1209;48.410;9.054;2023-07-13T02:37:35;96306.38;;;18.73;100.00
2397;BME280;1209;48.410;9.054;2023-07-13T02:40:00;96300.38;;;18.66;100.00
2397;BME280;1209;48.410;9.054;2023-07-13T02:42:26;96308.78;;;18.27;100.00
2397;BME280;1209;48.410;9.054;2023-07-13T02:44:51;96311.44;;;18.45;100.00
2397;BME280;1209;48.410;9.054;2023-07-13T02:47:16;96321.38;;;18.61;100.00
2397;BME280;1209;48.410;9.054;2023-07-13T02:49:41;96317.34;;;18.59;100.00
2397;BME280;1209;48.410;9.054;2023-07-13T02:52:07;96317.56;;;18.57;100.00
2397;BME280;1209;48.410;9.054;2023-07-13T02:54:32;96312.16;;;18.52;100.00
2397;BME280;1209;48.410;9.054;2023-07-13T02:56:57;96305.59;;;18.36;100.00
2397;BME280;1209;48.410;9.054;2023-07-13T02:59:23;96311.47;;;18.38;100.00
2397;BME280;1209;48.410;9.054;2023-07-13T03:01:48;96310.19;;;18.11;100.00
2397;BME280;1209;48.410;9.054;2023-07-13T03:04:13;96314.81;;;18.15;100.00
2397;BME280;1209;48.410;9.054;2023-07-13T03:06:39;96302.59;;;18.33;100.00
2397;BME280;1209;48.410;9.054;2023-07-13T03:09:04;96311.50;;;18.02;100.00
2397;BME280;1209;48.410;9.054;2023-07-13T03:11:30;96314.41;;;17.93;100.00
2397;BME280;1209;48.410;9.054;2023-07-13T03:13:55;96307.97;;;17.89;100.00
2397;BME280;1209;48.410;9.054;2023-07-13T03:16:21;96308.91;;;17.95;100.00
2397;BME280;1209;48.410;9.054;2023-07-13T03:18:47;96301.53;;;18.04;100.00
2397;BME280;1209;48.410;9.054;2023-07-13T03:21:13;96300.19;;;18.13;100.00
2397;BME280;1209;48.410;9.054;2023-07-13T03:23:38;96295.50;;;18.15;100.00
2397;BME280;1209;48.410;9.054;2023-07-13T03:26:09;96304.50;;;17.71;100.00
2397;BME280;1209;48.410;9.054;2023-07-13T03:28:35;96309.13;;;17.50;100.00
2397;BME280;1209;48.410;9.054;2023-07-13T03:31:06;96311.56;;;17.52;100.00
2397;BME280;1209;48.410;9.054;2023-07-13T03:33:32;96304.06;;;17.74;100.00
2397;BME280;1209;48.410;9.054;2023-07-13T03:35:57;96310.81;;;17.88;100.00
2397;BME280;1209;48.410;9.054;2023-07-13T03:38:23;96303.69;;;17.88;100.00
2397;BME280;1209;48.410;9.054;2023-07-13T03:40:48;96299.47;;;17.62;100.00
2397;BME280;1209;48.410;9.054;2023-07-13T03:43:14;96305.66;;;17.50;100.00
2397;BME280;1209;48.410;9.054;2023-07-13T03:45:39;96322.16;;;17.45;100.00
2397;BME280;1209;48.410;9.054;2023-07-13T03:48:04;96323.88;;;17.58;100.00
2397;BME280;1209;48.410;9.054;2023-07-13T03:50:30;96319.28;;;17.47;100.00
2397;BME280;1209;48.410;9.054;2023-07-13T03:52:57;96327.72;;;17.37;100.00
2397;BME280;1209;48.410;9.054;2023-07-13T03:55:22;96322.38;;;17.44;100.00
2397;BME280;1209;48.410;9.054;2023-07-13T03:57:54;96322.00;;;17.65;100.00
2397;BME280;1209;48.410;9.054;2023-07-13T04:00:22;96331.06;;;17.51;100.00
2397;BME280;1209;48.410;9.054;2023-07-13T04:02:48;96330.44;;;17.49;100.00
2397;BME280;1209;48.410;9.054;2023-07-13T04:05:14;96337.75;;;17.53;100.00
2397;BME280;1209;48.410;9.054;2023-07-13T04:07:40;96337.16;;;17.51;100.00
2397;BME280;1209;48.410;9.054;2023-07-13T04:10:05;96332.63;;;17.58;100.00
2397;BME280;1209;48.410;9.054;2023-07-13T04:12:31;96336.44;;;17.62;100.00
2397;BME280;1209;48.410;9.054;2023-07-13T04:14:56;96341.00;;;17.49;100.00
2397;BME280;1209;48.410;9.054;2023-07-13T04:17:21;96341.00;;;17.49;100.00
2397;BME280;1209;48.410;9.054;2023-07-13T04:19:47;96335.09;;;17.28;100.00
2397;BME280;1209;48.410;9.054;2023-07-13T04:22:13;96339.28;;;17.36;100.00
2397;BME280;1209;48.410;9.054;2023-07-13T04:24:39;96338.47;;;17.11;100.00
2397;BME280;1209;48.410;9.054;2023-07-13T04:27:04;96338.84;;;17.14;100.00
2397;BME280;1209;48.410;9.054;2023-07-13T04:29:30;96334.22;;;17.10;100.00
2397;BME280;1209;48.410;9.054;2023-07-13T04:31:55;96340.25;;;17.17;100.00
2397;BME280;1209;48.410;9.054;2023-07-13T04:34:20;96342.06;;;16.85;100.00
2397;BME280;1209;48.410;9.054;2023-07-13T04:36:46;96343.16;;;17.02;100.00
2397;BME280;1209;48.410;9.054;2023-07-13T04:39:11;96339.91;;;17.07;100.00
2397;BME280;1209;48.410;9.054;2023-07-13T04:41:36;96341.91;;;17.11;100.00
2397;BME280;1209;48.410;9.054;2023-07-13T04:44:02;96347.44;;;17.35;100.00
2397;BME280;1209;48.410;9.054;2023-07-13T04:46:28;96346.94;;;17.19;100.00
2397;BME280;1209;48.410;9.054;2023-07-13T04:48:53;96348.50;;;17.27;100.00
2397;BME280;1209;48.410;9.054;2023-07-13T04:51:18;96349.38;;;17.46;100.00
2397;BME280;1209;48.410;9.054;2023-07-13T04:53:44;96345.75;;;17.40;100.00
2397;BME280;1209;48.410;9.054;2023-07-13T04:56:09;96354.63;;;17.21;100.00
2397;BME280;1209;48.410;9.054;2023-07-13T04:58:34;96357.28;;;17.21;100.00
2397;BME280;1209;48.410;9.054;2023-07-13T05:01:01;96354.84;;;17.51;100.00
2397;BME280;1209;48.410;9.054;2023-07-13T05:03:26;96349.06;;;17.60;100.00
2397;BME280;1209;48.410;9.054;2023-07-13T05:05:56;96362.25;;;17.60;100.00
2397;BME280;1209;48.410;9.054;2023-07-13T05:08:22;96359.75;;;17.72;100.00
2397;BME280;1209;48.410;9.054;2023-07-13T05:10:47;96368.56;;;17.59;100.00
2397;BME280;1209;48.410;9.054;2023-07-13T05:13:13;96373.19;;;17.71;100.00
2397;BME280;1209;48.410;9.054;2023-07-13T05:15:38;96375.63;;;17.66;100.00
2397;BME280;1209;48.410;9.054;2023-07-13T05:18:03;96386.91;;;17.79;100.00
2397;BME280;1209;48.410;9.054;2023-07-13T05:20:29;96389.97;;;17.51;100.00
2397;BME280;1209;48.410;9.054;2023-07-13T05:22:54;96395.56;;;17.68;100.00
2397;BME280;1209;48.410;9.054;2023-07-13T05:25:19;96398.66;;;17.83;100.00
2397;BME280;1209;48.410;9.054;2023-07-13T05:27:45;96395.38;;;17.88;100.00
2397;BME280;1209;48.410;9.054;2023-07-13T05:30:11;96397.03;;;18.07;100.00
2397;BME280;1209;48.410;9.054;2023-07-13T05:32:38;96396.31;;;17.75;100.00
2397;BME280;1209;48.410;9.054;2023-07-13T05:35:03;96396.19;;;17.88;100.00
2397;BME280;1209;48.410;9.054;2023-07-13T05:37:29;96405.78;;;18.08;100.00
2397;BME280;1209;48.410;9.054;2023-07-13T05:39:54;96402.84;;;18.16;100.00
2397;BME280;1209;48.410;9.054;2023-07-13T05:42:19;96389.34;;;18.24;100.00
2397;BME280;1209;48.410;9.054;2023-07-13T05:44:44;96390.66;;;18.33;100.00
2397;BME280;1209;48.410;9.054;2023-07-13T05:47:10;96398.09;;;18.43;100.00
2397;BME280;1209;48.410;9.054;2023-07-13T05:49:35;96409.88;;;18.47;100.00
2397;BME280;1209;48.410;9.054;2023-07-13T05:52:00;96406.94;;;18.55;100.00
2397;BME280;1209;48.410;9.054;2023-07-13T05:54:26;96420.31;;;18.78;100.00
2397;BME280;1209;48.410;9.054;2023-07-13T05:56:51;96420.75;;;18.94;100.00
2397;BME280;1209;48.410;9.054;2023-07-13T05:59:17;96422.88;;;19.03;100.00
2397;BME280;1209;48.410;9.054;2023-07-13T06:01:43;96425.88;;;18.88;100.00
2397;BME280;1209;48.410;9.054;2023-07-13T06:04:08;96422.50;;;18.81;100.00
2397;BME280;1209;48.410;9.054;2023-07-13T06:06:33;96423.03;;;18.72;100.00
2397;BME280;1209;48.410;9.054;2023-07-13T06:08:58;96421.50;;;18.64;100.00
2397;BME280;1209;48.410;9.054;2023-07-13T06:11:26;96424.13;;;18.82;100.00
2397;BME280;1209;48.410;9.054;2023-07-13T06:13:52;96419.78;;;18.88;100.00
2397;BME280;1209;48.410;9.054;2023-07-13T06:16:18;96426.53;;;19.02;100.00
2397;BME280;1209;48.410;9.054;2023-07-13T06:18:44;96420.84;;;19.17;100.00
2397;BME280;1209;48.410;9.054;2023-07-13T06:21:12;96430.22;;;19.31;100.00
2397;BME280;1209;48.410;9.054;2023-07-13T06:23:38;96434.53;;;19.44;100.00
2397;BME280;1209;48.410;9.054;2023-07-13T06:26:05;96434.72;;;19.61;100.00
2397;BME280;1209;48.410;9.054;2023-07-13T06:28:31;96430.69;;;19.70;100.00
2397;BME280;1209;48.410;9.054;2023-07-13T06:30:57;96436.25;;;19.80;100.00
2397;BME280;1209;48.410;9.054;2023-07-13T06:33:23;96441.00;;;19.90;100.00
2397;BME280;1209;48.410;9.054;2023-07-13T06:35:48;96446.09;;;20.03;100.00
2397;BME280;1209;48.410;9.054;2023-07-13T06:38:14;96440.66;;;19.98;100.00
2397;BME280;1209;48.410;9.054;2023-07-13T06:40:39;96445.28;;;20.14;100.00
2397;BME280;1209;48.410;9.054;2023-07-13T06:43:04;96447.25;;;20.07;100.00
2397;BME280;1209;48.410;9.054;2023-07-13T06:45:30;96452.91;;;20.34;100.00
2397;BME280;1209;48.410;9.054;2023-07-13T06:47:55;96440.81;;;20.38;100.00
2397;BME280;1209;48.410;9.054;2023-07-13T06:50:20;96446.00;;;20.56;100.00
2397;BME280;1209;48.410;9.054;2023-07-13T06:52:46;96443.31;;;20.68;100.00
2397;BME280;1209;48.410;9.054;2023-07-13T06:55:11;96434.69;;;20.61;100.00
2397;BME280;1209;48.410;9.054;2023-07-13T06:57:36;96441.41;;;20.52;100.00
2397;BME280;1209;48.410;9.054;2023-07-13T07:00:02;96438.19;;;21.01;100.00
2397;BME280;1209;48.410;9.054;2023-07-13T07:02:27;96437.94;;;21.03;100.00
2397;BME280;1209;48.410;9.054;2023-07-13T07:04:52;96447.38;;;21.11;100.00
2397;BME280;1209;48.410;9.054;2023-07-13T07:07:19;96439.38;;;21.22;100.00
2397;BME280;1209;48.410;9.054;2023-07-13T07:09:44;96448.28;;;21.16;97.97
2397;BME280;1209;48.410;9.054;2023-07-13T07:12:10;96450.31;;;21.38;96.47
2397;BME280;1209;48.410;9.054;2023-07-13T07:14:35;96450.03;;;21.67;92.64
2397;BME280;1209;48.410;9.054;2023-07-13T07:17:00;96449.63;;;21.59;85.16
2397;BME280;1209;48.410;9.054;2023-07-13T07:19:28;96457.34;;;21.44;85.39
2397;BME280;1209;48.410;9.054;2023-07-13T07:21:54;96456.78;;;21.42;84.89
2397;BME280;1209;48.410;9.054;2023-07-13T07:24:19;96452.78;;;21.56;84.18
2397;BME280;1209;48.410;9.054;2023-07-13T07:26:44;96449.88;;;21.74;78.87
2397;BME280;1209;48.410;9.054;2023-07-13T07:29:10;96447.66;;;21.83;80.65
2397;BME280;1209;48.410;9.054;2023-07-13T07:31:35;96455.41;;;21.84;78.44
2397;BME280;1209;48.410;9.054;2023-07-13T07:34:02;96459.50;;;21.92;88.50
2397;BME280;1209;48.410;9.054;2023-07-13T07:36:34;96456.13;;;21.80;78.58
2397;BME280;1209;48.410;9.054;2023-07-13T07:38:59;96455.22;;;21.74;75.97
2397;BME280;1209;48.410;9.054;2023-07-13T07:41:24;96456.16;;;22.13;75.45
2397;BME280;1209;48.410;9.054;2023-07-13T07:43:50;96465.84;;;22.36;79.47
2397;BME280;1209;48.410;9.054;2023-07-13T07:46:15;96468.00;;;22.39;75.25
2397;BME280;1209;48.410;9.054;2023-07-13T07:48:40;96465.75;;;22.31;77.68
2397;BME280;1209;48.410;9.054;2023-07-13T07:51:06;96458.25;;;22.11;78.75
2397;BME280;1209;48.410;9.054;2023-07-13T07:53:31;96464.28;;;22.07;81.15
2397;BME280;1209;48.410;9.054;2023-07-13T07:55:56;96465.00;;;21.85;74.97
2397;BME280;1209;48.410;9.054;2023-07-13T07:58:22;96461.94;;;21.77;83.77
2397;BME280;1209;48.410;9.054;2023-07-13T08:00:47;96464.22;;;22.18;80.74
2397;BME280;1209;48.410;9.054;2023-07-13T08:03:12;96467.81;;;22.46;72.87
2397;BME280;1209;48.410;9.054;2023-07-13T08:05:37;96469.78;;;22.89;71.14
2397;BME280;1209;48.410;9.054;2023-07-13T08:08:03;96468.53;;;22.97;67.71
2397;BME280;1209;48.410;9.054;2023-07-13T08:10:29;96468.41;;;23.08;67.31
2397;BME280;1209;48.410;9.054;2023-07-13T08:12:54;96463.44;;;23.17;68.36
2397;BME280;1209;48.410;9.054;2023-07-13T08:15:20;96457.09;;;23.45;66.46
2397;BME280;1209;48.410;9.054;2023-07-13T08:17:47;96458.72;;;23.46;64.34
2397;BME280;1209;48.410;9.054;2023-07-13T08:20:13;96465.44;;;23.53;63.40
2397;BME280;1209;48.410;9.054;2023-07-13T08:22:38;96465.09;;;23.99;63.48
2397;BME280;1209;48.410;9.054;2023-07-13T08:25:04;96467.47;;;23.95;60.57
2397;BME280;1209;48.410;9.054;2023-07-13T08:27:29;96463.34;;;23.77;58.18
2397;BME280;1209;48.410;9.054;2023-07-13T08:29:54;96461.59;;;23.93;59.05
2397;BME280;1209;48.410;9.054;2023-07-13T08:32:22;96462.03;;;23.80;58.54
2397;BME280;1209;48.410;9.054;2023-07-13T08:34:47;96467.25;;;24.02;60.50
2397;BME280;1209;48.410;9.054;2023-07-13T08:37:13;96464.56;;;23.97;57.79
2397;BME280;1209;48.410;9.054;2023-07-13T08:39:39;96468.63;;;24.36;58.95
2397;BME280;1209;48.410;9.054;2023-07-13T08:42:26;96467.09;;;24.45;57.97
2397;BME280;1209;48.410;9.054;2023-07-13T08:45:21;96473.75;;;24.43;56.50
2397;BME280;1209;48.410;9.054;2023-07-13T08:47:54;96464.94;;;24.42;58.72
2397;BME280;1209;48.410;9.054;2023-07-13T08:50:25;96463.22;;;24.63;59.18
2397;BME280;1209;48.410;9.054;2023-07-13T08:52:54;96462.53;;;24.88;59.16
2397;BME280;1209;48.410;9.054;2023-07-13T08:55:22;96477.31;;;25.01;58.85
2397;BME280;1209;48.410;9.054;2023-07-13T08:57:54;96474.16;;;25.09;58.70
2397;BME280;1209;48.410;9.054;2023-07-13T09:00:31;96475.19;;;25.03;56.86
2397;BME280;1209;48.410;9.054;2023-07-13T09:03:00;96467.28;;;24.34;58.05
2397;BME280;1209;48.410;9.054;2023-07-13T09:05:31;96472.78;;;24.22;58.95
2397;BME280;1209;48.410;9.054;2023-07-13T09:08:15;96471.16;;;23.89;59.45
2397;BME280;1209;48.410;9.054;2023-07-13T09:10:45;96474.59;;;23.14;60.17
2397;BME280;1209;48.410;9.054;2023-07-13T09:16:02;96474.72;;;24.00;59.59
2397;BME280;1209;48.410;9.054;2023-07-13T09:18:33;96479.91;;;24.43;59.72
2397;BME280;1209;48.410;9.054;2023-07-13T09:21:10;96473.69;;;24.75;58.29
2397;BME280;1209;48.410;9.054;2023-07-13T09:23:37;96484.63;;;24.73;58.59
2397;BME280;1209;48.410;9.054;2023-07-13T09:26:11;96475.81;;;24.73;56.38
2397;BME280;1209;48.410;9.054;2023-07-13T09:28:45;96477.59;;;25.04;61.10
2397;BME280;1209;48.410;9.054;2023-07-13T09:31:16;96477.44;;;25.26;57.88
2397;BME280;1209;48.410;9.054;2023-07-13T09:33:43;96472.66;;;25.49;56.56
2397;BME280;1209;48.410;9.054;2023-07-13T09:36:19;96479.66;;;24.97;56.25
2397;BME280;1209;48.410;9.054;2023-07-13T09:38:45;96468.06;;;24.29;55.60
2397;BME280;1209;48.410;9.054;2023-07-13T09:41:21;96471.97;;;24.22;57.05
2397;BME280;1209;48.410;9.054;2023-07-13T09:44:08;96462.59;;;24.51;57.31
2397;BME280;1209;48.410;9.054;2023-07-13T09:46:34;96468.94;;;24.87;57.77
2397;BME280;1209;48.410;9.054;2023-07-13T09:48:59;96472.28;;;25.09;58.60
2397;BME280;1209;48.410;9.054;2023-07-13T09:51:25;96475.84;;;25.40;57.95
2397;BME280;1209;48.410;9.054;2023-07-13T09:53:50;96474.09;;;25.71;57.36
2397;BME280;1209;48.410;9.054;2023-07-13T09:56:24;96484.72;;;25.51;55.50
2397;BME280;1209;48.410;9.054;2023-07-13T09:58:51;96475.81;;;25.20;53.76
2397;BME280;1209;48.410;9.054;2023-07-13T10:01:31;96473.47;;;25.44;51.30
2397;BME280;1209;48.410;9.054;2023-07-13T10:03:57;96473.31;;;25.81;51.71
2397;BME280;1209;48.410;9.054;2023-07-13T10:06:23;96480.00;;;25.94;49.67
2397;BME280;1209;48.410;9.054;2023-07-13T10:08:52;96482.19;;;26.12;54.58
2397;BME280;1209;48.410;9.054;2023-07-13T10:11:23;96477.06;;;26.26;51.31
2397;BME280;1209;48.410;9.054;2023-07-13T10:14:03;96463.69;;;26.51;53.21
2397;BME280;1209;48.410;9.054;2023-07-13T10:16:35;96465.75;;;26.80;53.56
2397;BME280;1209;48.410;9.054;2023-07-13T10:19:14;96471.19;;;26.34;51.08
2397;BME280;1209;48.410;9.054;2023-07-13T10:22:00;96474.13;;;25.92;49.94
2397;BME280;1209;48.410;9.054;2023-07-13T10:24:36;96470.25;;;25.47;52.72
2397;BME280;1209;48.410;9.054;2023-07-13T10:27:16;96472.50;;;25.03;50.99
2397;BME280;1209;48.410;9.054;2023-07-13T10:29:46;96466.59;;;25.68;50.98
2397;BME280;1209;48.410;9.054;2023-07-13T10:32:13;96470.00;;;25.54;51.80
2397;BME280;1209;48.410;9.054;2023-07-13T10:34:43;96466.03;;;25.56;53.11
2397;BME280;1209;48.410;9.054;2023-07-13T10:37:22;96469.16;;;25.38;53.08
2397;BME280;1209;48.410;9.054;2023-07-13T10:39:51;96465.22;;;25.61;51.97
2397;BME280;1209;48.410;9.054;2023-07-13T10:42:28;96457.50;;;25.75;54.73
2397;BME280;1209;48.410;9.054;2023-07-13T10:44:55;96458.84;;;25.82;54.24
2397;BME280;1209;48.410;9.054;2023-07-13T10:47:20;96456.13;;;25.62;52.15
2397;BME280;1209;48.410;9.054;2023-07-13T10:49:48;96455.59;;;25.55;55.21
2397;BME280;1209;48.410;9.054;2023-07-13T10:53:35;96457.53;;;26.30;53.40
2397;BME280;1209;48.410;9.054;2023-07-13T10:55:36;96460.97;;;26.72;49.38
2397;BME280;1209;48.410;9.054;2023-07-13T11:00:56;96449.44;;;27.41;48.65
2397;BME280;1209;48.410;9.054;2023-07-13T11:03:23;96443.47;;;27.98;47.43
2397;BME280;1209;48.410;9.054;2023-07-13T11:05:50;96443.34;;;27.30;47.19
2397;BME280;1209;48.410;9.054;2023-07-13T11:08:31;96437.84;;;26.91;47.73
2397;BME280;1209;48.410;9.054;2023-07-13T11:10:57;96442.94;;;26.97;46.87
2397;BME280;1209;48.410;9.054;2023-07-13T11:16:12;96435.91;;;28.05;47.10
2397;BME280;1209;48.410;9.054;2023-07-13T11:18:38;96435.53;;;28.17;46.96
2397;BME280;1209;48.410;9.054;2023-07-13T11:21:20;96431.47;;;28.19;46.21
2397;BME280;1209;48.410;9.054;2023-07-13T11:31:41;96429.13;;;28.13;48.85
2397;BME280;1209;48.410;9.054;2023-07-13T11:34:23;96424.50;;;27.84;47.01
2397;BME280;1209;48.410;9.054;2023-07-13T11:36:52;96424.16;;;27.57;46.33
2397;BME280;1209;48.410;9.054;2023-07-13T11:39:27;96427.94;;;27.90;49.65
2397;BME280;1209;48.410;9.054;2023-07-13T11:41:58;96438.34;;;29.12;46.75
2397;BME280;1209;48.410;9.054;2023-07-13T11:44:26;96428.69;;;29.30;45.54
2397;BME280;1209;48.410;9.054;2023-07-13T11:47:00;96431.22;;;29.45;43.63
2397;BME280;1209;48.410;9.054;2023-07-13T11:49:42;96425.34;;;29.38;43.94
2397;BME280;1209;48.410;9.054;2023-07-13T11:52:21;96415.84;;;29.84;44.10
2397;BME280;1209;48.410;9.054;2023-07-13T11:54:50;96418.97;;;29.53;44.21
2397;BME280;1209;48.410;9.054;2023-07-13T11:57:31;96417.63;;;29.32;42.59
2397;BME280;1209;48.410;9.054;2023-07-13T12:00:00;96421.66;;;29.91;40.73
2397;BME280;1209;48.410;9.054;2023-07-13T12:02:32;96419.81;;;30.51;40.68
2397;BME280;1209;48.410;9.054;2023-07-13T12:05:00;96425.00;;;30.48;42.54
2397;BME280;1209;48.410;9.054;2023-07-13T12:07:29;96422.38;;;29.77;41.65
2397;BME280;1209;48.410;9.054;2023-07-13T12:12:29;96420.56;;;29.35;44.99
2397;BME280;1209;48.410;9.054;2023-07-13T12:14:55;96426.75;;;28.64;42.62
2397;BME280;1209;48.410;9.054;2023-07-13T12:17:25;96414.88;;;28.70;40.81
2397;BME280;1209;48.410;9.054;2023-07-13T12:19:52;96423.66;;;28.76;41.45
2397;BME280;1209;48.410;9.054;2023-07-13T12:22:19;96419.41;;;29.60;39.55
2397;BME280;1209;48.410;9.054;2023-07-13T12:24:46;96420.22;;;29.18;40.29
2397;BME280;1209;48.410;9.054;2023-07-13T12:27:22;96415.91;;;29.41;39.81
2397;BME280;1209;48.410;9.054;2023-07-13T12:29:53;96419.41;;;29.41;41.53
2397;BME280;1209;48.410;9.054;2023-07-13T12:32:24;96417.88;;;28.93;44.06
2397;BME280;1209;48.410;9.054;2023-07-13T12:34:55;96418.69;;;28.06;41.53
2397;BME280;1209;48.410;9.054;2023-07-13T12:37:21;96424.31;;;28.68;42.00
2397;BME280;1209;48.410;9.054;2023-07-13T12:39:48;96421.28;;;28.16;41.72
2397;BME280;1209;48.410;9.054;2023-07-13T12:42:27;96421.44;;;28.83;42.97
2397;BME280;1209;48.410;9.054;2023-07-13T12:44:56;96413.91;;;28.61;43.76
2397;BME280;1209;48.410;9.054;2023-07-13T12:47:22;96411.56;;;28.26;42.07
2397;BME280;1209;48.410;9.054;2023-07-13T12:49:52;96408.75;;;27.28;43.79
2397;BME280;1209;48.410;9.054;2023-07-13T12:52:22;96407.59;;;27.40;48.68
2397;BME280;1209;48.410;9.054;2023-07-13T12:54:57;96424.78;;;28.17;44.59
2397;BME280;1209;48.410;9.054;2023-07-13T12:57:23;96424.66;;;28.85;42.77
2397;BME280;1209;48.410;9.054;2023-07-13T12:59:57;96427.22;;;28.47;41.22
2397;BME280;1209;48.410;9.054;2023-07-13T13:02:29;96427.50;;;28.46;41.98
2397;BME280;1209;48.410;9.054;2023-07-13T13:04:56;96423.66;;;27.89;42.15
2397;BME280;1209;48.410;9.054;2023-07-13T13:07:23;96414.03;;;27.83;42.20
2397;BME280;1209;48.410;9.054;2023-07-13T13:09:48;96416.69;;;28.51;43.86
2397;BME280;1209;48.410;9.054;2023-07-13T13:12:14;96414.28;;;28.20;41.53
2397;BME280;1209;48.410;9.054;2023-07-13T13:14:40;96405.53;;;28.39;41.39
2397;BME280;1209;48.410;9.054;2023-07-13T13:17:18;96412.31;;;28.31;41.19
2397;BME280;1209;48.410;9.054;2023-07-13T13:19:44;96415.25;;;28.88;41.58
2397;BME280;1209;48.410;9.054;2023-07-13T13:22:10;96408.75;;;29.12;39.38
2397;BME280;1209;48.410;9.054;2023-07-13T13:24:35;96408.75;;;29.12;40.96
2397;BME280;1209;48.410;9.054;2023-07-13T13:27:01;96414.25;;;29.02;41.02
2397;BME280;1209;48.410;9.054;2023-07-13T13:29:27;96418.69;;;28.93;42.06
2397;BME280;1209;48.410;9.054;2023-07-13T13:31:54;96412.75;;;28.67;40.22
2397;BME280;1209;48.410;9.054;2023-07-13T13:34:21;96423.47;;;28.96;40.70
2397;BME280;1209;48.410;9.054;2023-07-13T13:36:49;96414.53;;;29.01;41.51
2397;BME280;1209;48.410;9.054;2023-07-13T13:39:21;96408.41;;;28.71;39.96